sensor_id;sensor_type;location;lat;lon;timestamp;temperature;humidity
12632;DHT22;6381;45.748;12.106;2023-03-22T00:01:36;14.70;90.00
12632;DHT22;6381;45.748;12.106;2023-03-22T00:04:08;14.60;89.30
12632;DHT22;6381;45.748;12.106;2023-03-22T00:06:38;14.50;89.60
12632;DHT22;6381;45.748;12.106;2023-03-22T00:09:08;14.50;89.70
12632;DHT22;6381;45.748;12.106;2023-03-22T00:11:38;14.50;89.80
12632;DHT22;6381;45.748;12.106;2023-03-22T00:14:09;14.50;89.60
12632;DHT22;6381;45.748;12.106;2023-03-22T00:16:41;14.60;89.30
12632;DHT22;6381;45.748;12.106;2023-03-22T00:19:13;14.60;89.30
12632;DHT22;6381;45.748;12.106;2023-03-22T00:21:43;14.70;89.80
12632;DHT22;6381;45.748;12.106;2023-03-22T00:24:14;14.70;90.80
12632;DHT22;6381;45.748;12.106;2023-03-22T00:26:44;14.60;91.10
12632;DHT22;6381;45.748;12.106;2023-03-22T00:29:15;14.60;91.40
12632;DHT22;6381;45.748;12.106;2023-03-22T00:31:48;14.50;91.60
12632;DHT22;6381;45.748;12.106;2023-03-22T00:34:19;14.60;91.50
12632;DHT22;6381;45.748;12.106;2023-03-22T00:36:49;14.70;90.70
12632;DHT22;6381;45.748;12.106;2023-03-22T00:39:20;14.70;90.30
12632;DHT22;6381;45.748;12.106;2023-03-22T00:41:50;14.80;90.20
12632;DHT22;6381;45.748;12.106;2023-03-22T00:44:21;14.90;90.10
12632;DHT22;6381;45.748;12.106;2023-03-22T00:46:53;14.80;90.20
12632;DHT22;6381;45.748;12.106;2023-03-22T00:49:24;14.80;90.50
12632;DHT22;6381;45.748;12.106;2023-03-22T00:51:54;14.80;90.70
12632;DHT22;6381;45.748;12.106;2023-03-22T00:54:25;14.40;91.20
12632;DHT22;6381;45.748;12.106;2023-03-22T00:56:55;14.10;91.90
12632;DHT22;6381;45.748;12.106;2023-03-22T00:59:25;13.90;92.70
12632;DHT22;6381;45.748;12.106;2023-03-22T01:01:58;13.80;92.90
12632;DHT22;6381;45.748;12.106;2023-03-22T01:04:28;13.90;93.10
12632;DHT22;6381;45.748;12.106;2023-03-22T01:06:58;14.10;93.00
12632;DHT22;6381;45.748;12.106;2023-03-22T01:09:31;13.90;93.00
12632;DHT22;6381;45.748;12.106;2023-03-22T01:12:01;13.90;93.30
12632;DHT22;6381;45.748;12.106;2023-03-22T01:14:31;13.70;93.60
12632;DHT22;6381;45.748;12.106;2023-03-22T01:17:03;13.70;93.60
12632;DHT22;6381;45.748;12.106;2023-03-22T01:19:35;13.70;93.80
12632;DHT22;6381;45.748;12.106;2023-03-22T01:22:07;13.70;93.80
12632;DHT22;6381;45.748;12.106;2023-03-22T01:24:37;13.80;93.90
12632;DHT22;6381;45.748;12.106;2023-03-22T01:27:07;14.00;93.80
12632;DHT22;6381;45.748;12.106;2023-03-22T01:29:38;14.00;93.90
12632;DHT22;6381;45.748;12.106;2023-03-22T01:32:11;13.90;93.90
12632;DHT22;6381;45.748;12.106;2023-03-22T01:34:42;13.80;94.00
12632;DHT22;6381;45.748;12.106;2023-03-22T01:37:14;13.90;94.20
12632;DHT22;6381;45.748;12.106;2023-03-22T01:39:46;14.00;93.90
12632;DHT22;6381;45.748;12.106;2023-03-22T01:42:17;14.00;93.90
12632;DHT22;6381;45.748;12.106;2023-03-22T01:48:14;14.10;93.60
12632;DHT22;6381;45.748;12.106;2023-03-22T01:50:52;14.10;93.70
12632;DHT22;6381;45.748;12.106;2023-03-22T01:53:26;14.10;93.80
12632;DHT22;6381;45.748;12.106;2023-03-22T01:55:57;13.90;94.00
12632;DHT22;6381;45.748;12.106;2023-03-22T01:58:33;13.80;94.60
12632;DHT22;6381;45.748;12.106;2023-03-22T02:01:09;13.70;94.80
12632;DHT22;6381;45.748;12.106;2023-03-22T02:03:57;13.70;95.00
12632;DHT22;6381;45.748;12.106;2023-03-22T02:06:30;13.90;95.00
12632;DHT22;6381;45.748;12.106;2023-03-22T02:09:06;13.90;94.70
12632;DHT22;6381;45.748;12.106;2023-03-22T02:11:38;13.90;94.50
12632;DHT22;6381;45.748;12.106;2023-03-22T02:14:39;14.00;94.60
12632;DHT22;6381;45.748;12.106;2023-03-22T02:17:51;13.90;94.60
12632;DHT22;6381;45.748;12.106;2023-03-22T02:21:10;14.00;94.90
12632;DHT22;6381;45.748;12.106;2023-03-22T02:24:08;14.00;94.80
12632;DHT22;6381;45.748;12.106;2023-03-22T02:29:40;14.00;94.90
12632;DHT22;6381;45.748;12.106;2023-03-22T02:35:30;13.80;94.90
12632;DHT22;6381;45.748;12.106;2023-03-22T02:41:36;13.80;95.00
12632;DHT22;6381;45.748;12.106;2023-03-22T02:44:19;13.90;95.10
12632;DHT22;6381;45.748;12.106;2023-03-22T02:46:58;13.90;95.30
12632;DHT22;6381;45.748;12.106;2023-03-22T02:49:36;13.90;95.50
12632;DHT22;6381;45.748;12.106;2023-03-22T02:52:13;13.80;95.70
12632;DHT22;6381;45.748;12.106;2023-03-22T02:54:49;13.90;95.60
12632;DHT22;6381;45.748;12.106;2023-03-22T02:57:30;13.70;95.90
12632;DHT22;6381;45.748;12.106;2023-03-22T03:00:05;13.60;96.30
12632;DHT22;6381;45.748;12.106;2023-03-22T03:02:42;13.40;96.70
12632;DHT22;6381;45.748;12.106;2023-03-22T03:05:15;13.40;97.00
12632;DHT22;6381;45.748;12.106;2023-03-22T03:07:49;13.30;97.30
12632;DHT22;6381;45.748;12.106;2023-03-22T03:10:23;13.40;97.50
12632;DHT22;6381;45.748;12.106;2023-03-22T03:12:55;13.50;97.30
12632;DHT22;6381;45.748;12.106;2023-03-22T03:15:27;13.60;97.00
12632;DHT22;6381;45.748;12.106;2023-03-22T03:18:15;13.50;97.10
12632;DHT22;6381;45.748;12.106;2023-03-22T03:20:55;13.30;97.30
12632;DHT22;6381;45.748;12.106;2023-03-22T03:23:37;13.40;97.60
12632;DHT22;6381;45.748;12.106;2023-03-22T03:26:16;13.40;97.80
12632;DHT22;6381;45.748;12.106;2023-03-22T03:28:54;13.30;98.20
12632;DHT22;6381;45.748;12.106;2023-03-22T03:31:32;13.10;98.70
12632;DHT22;6381;45.748;12.106;2023-03-22T03:34:12;13.20;99.00
12632;DHT22;6381;45.748;12.106;2023-03-22T03:36:49;13.30;98.70
12632;DHT22;6381;45.748;12.106;2023-03-22T03:39:24;13.40;98.60
12632;DHT22;6381;45.748;12.106;2023-03-22T03:41:55;13.40;98.50
12632;DHT22;6381;45.748;12.106;2023-03-22T03:44:28;13.40;98.40
12632;DHT22;6381;45.748;12.106;2023-03-22T03:46:59;13.40;98.30
12632;DHT22;6381;45.748;12.106;2023-03-22T03:49:30;13.30;98.40
12632;DHT22;6381;45.748;12.106;2023-03-22T03:52:00;13.20;98.60
12632;DHT22;6381;45.748;12.106;2023-03-22T03:54:32;13.10;98.80
12632;DHT22;6381;45.748;12.106;2023-03-22T03:57:04;13.10;99.00
12632;DHT22;6381;45.748;12.106;2023-03-22T03:59:37;13.10;99.00
12632;DHT22;6381;45.748;12.106;2023-03-22T04:02:16;13.10;98.90
12632;DHT22;6381;45.748;12.106;2023-03-22T04:04:47;13.10;98.80
12632;DHT22;6381;45.748;12.106;2023-03-22T04:07:19;13.10;98.90
12632;DHT22;6381;45.748;12.106;2023-03-22T04:09:49;13.00;99.00
12632;DHT22;6381;45.748;12.106;2023-03-22T04:12:26;13.00;99.00
12632;DHT22;6381;45.748;12.106;2023-03-22T04:15:13;13.00;99.20
12632;DHT22;6381;45.748;12.106;2023-03-22T04:17:49;12.80;99.20
12632;DHT22;6381;45.748;12.106;2023-03-22T04:20:23;12.90;99.30
12632;DHT22;6381;45.748;12.106;2023-03-22T04:22:53;12.90;99.00
12632;DHT22;6381;45.748;12.106;2023-03-22T04:25:25;12.90;98.80
12632;DHT22;6381;45.748;12.106;2023-03-22T04:28:03;12.80;99.00
12632;DHT22;6381;45.748;12.106;2023-03-22T04:30:36;12.70;99.30
12632;DHT22;6381;45.748;12.106;2023-03-22T04:33:25;12.60;99.40
12632;DHT22;6381;45.748;12.106;2023-03-22T04:36:16;12.60;99.10
12632;DHT22;6381;45.748;12.106;2023-03-22T04:39:07;12.80;98.90
12632;DHT22;6381;45.748;12.106;2023-03-22T04:41:40;12.70;99.00
12632;DHT22;6381;45.748;12.106;2023-03-22T04:44:10;12.80;98.90
12632;DHT22;6381;45.748;12.106;2023-03-22T04:46:48;12.80;98.90
12632;DHT22;6381;45.748;12.106;2023-03-22T04:49:18;12.70;99.00
12632;DHT22;6381;45.748;12.106;2023-03-22T04:51:48;12.60;99.20
12632;DHT22;6381;45.748;12.106;2023-03-22T04:54:29;12.60;99.10
12632;DHT22;6381;45.748;12.106;2023-03-22T04:56:59;12.70;98.70
12632;DHT22;6381;45.748;12.106;2023-03-22T04:59:36;12.70;98.50
12632;DHT22;6381;45.748;12.106;2023-03-22T05:02:08;12.60;98.60
12632;DHT22;6381;45.748;12.106;2023-03-22T05:04:42;12.60;98.70
12632;DHT22;6381;45.748;12.106;2023-03-22T05:07:22;12.60;98.50
12632;DHT22;6381;45.748;12.106;2023-03-22T05:09:55;12.50;98.80
12632;DHT22;6381;45.748;12.106;2023-03-22T05:12:25;12.40;98.90
12632;DHT22;6381;45.748;12.106;2023-03-22T05:15:00;12.20;99.20
12632;DHT22;6381;45.748;12.106;2023-03-22T05:17:38;12.30;99.50
12632;DHT22;6381;45.748;12.106;2023-03-22T05:20:10;12.20;99.60
12632;DHT22;6381;45.748;12.106;2023-03-22T05:22:43;12.20;99.60
12632;DHT22;6381;45.748;12.106;2023-03-22T05:25:19;11.90;99.80
12632;DHT22;6381;45.748;12.106;2023-03-22T05:27:49;11.90;99.90
12632;DHT22;6381;45.748;12.106;2023-03-22T05:30:42;12.10;99.90
12632;DHT22;6381;45.748;12.106;2023-03-22T05:33:43;12.20;99.90
12632;DHT22;6381;45.748;12.106;2023-03-22T05:36:18;12.10;99.90
12632;DHT22;6381;45.748;12.106;2023-03-22T05:39:21;12.00;99.90
12632;DHT22;6381;45.748;12.106;2023-03-22T05:41:51;11.90;99.90
12632;DHT22;6381;45.748;12.106;2023-03-22T05:44:21;12.10;99.90
12632;DHT22;6381;45.748;12.106;2023-03-22T05:47:01;12.10;99.90
12632;DHT22;6381;45.748;12.106;2023-03-22T05:49:59;12.20;99.60
12632;DHT22;6381;45.748;12.106;2023-03-22T05:52:31;12.30;99.40
12632;DHT22;6381;45.748;12.106;2023-03-22T05:55:14;12.20;99.30
12632;DHT22;6381;45.748;12.106;2023-03-22T05:57:47;12.30;99.40
12632;DHT22;6381;45.748;12.106;2023-03-22T06:00:27;12.40;98.80
12632;DHT22;6381;45.748;12.106;2023-03-22T06:03:22;12.20;98.80
12632;DHT22;6381;45.748;12.106;2023-03-22T06:05:59;12.30;98.80
12632;DHT22;6381;45.748;12.106;2023-03-22T06:08:38;12.30;98.50
12632;DHT22;6381;45.748;12.106;2023-03-22T06:11:08;12.40;98.50
12632;DHT22;6381;45.748;12.106;2023-03-22T06:13:39;12.50;98.40
12632;DHT22;6381;45.748;12.106;2023-03-22T06:16:11;12.70;98.30
12632;DHT22;6381;45.748;12.106;2023-03-22T06:18:42;13.00;97.60
12632;DHT22;6381;45.748;12.106;2023-03-22T06:21:14;12.90;97.80
12632;DHT22;6381;45.748;12.106;2023-03-22T06:23:44;13.10;97.60
12632;DHT22;6381;45.748;12.106;2023-03-22T06:26:15;13.30;97.40
12632;DHT22;6381;45.748;12.106;2023-03-22T06:28:45;13.40;97.50
12632;DHT22;6381;45.748;12.106;2023-03-22T06:31:20;13.60;97.20
12632;DHT22;6381;45.748;12.106;2023-03-22T06:33:55;13.60;97.20
12632;DHT22;6381;45.748;12.106;2023-03-22T06:36:37;13.70;97.20
12632;DHT22;6381;45.748;12.106;2023-03-22T06:39:12;13.90;96.90
12632;DHT22;6381;45.748;12.106;2023-03-22T06:41:44;14.00;96.50
12632;DHT22;6381;45.748;12.106;2023-03-22T06:44:14;14.00;96.40
12632;DHT22;6381;45.748;12.106;2023-03-22T06:46:50;14.00;96.60
12632;DHT22;6381;45.748;12.106;2023-03-22T06:49:47;14.20;96.60
12632;DHT22;6381;45.748;12.106;2023-03-22T06:52:31;14.10;96.80
12632;DHT22;6381;45.748;12.106;2023-03-22T06:55:06;14.10;96.80
12632;DHT22;6381;45.748;12.106;2023-03-22T06:57:36;14.20;96.80
12632;DHT22;6381;45.748;12.106;2023-03-22T07:00:10;14.40;96.80
12632;DHT22;6381;45.748;12.106;2023-03-22T07:02:40;14.50;96.70
12632;DHT22;6381;45.748;12.106;2023-03-22T07:05:46;14.50;96.50
12632;DHT22;6381;45.748;12.106;2023-03-22T07:08:18;14.60;96.50
12632;DHT22;6381;45.748;12.106;2023-03-22T07:10:50;14.60;96.10
12632;DHT22;6381;45.748;12.106;2023-03-22T07:13:23;14.60;96.20
12632;DHT22;6381;45.748;12.106;2023-03-22T07:15:59;14.50;96.40
12632;DHT22;6381;45.748;12.106;2023-03-22T07:18:50;14.50;96.30
12632;DHT22;6381;45.748;12.106;2023-03-22T07:21:19;14.50;96.40
12632;DHT22;6381;45.748;12.106;2023-03-22T07:23:56;14.60;96.40
12632;DHT22;6381;45.748;12.106;2023-03-22T07:26:29;14.80;96.00
12632;DHT22;6381;45.748;12.106;2023-03-22T07:29:01;14.80;95.90
12632;DHT22;6381;45.748;12.106;2023-03-22T07:31:33;14.90;95.80
12632;DHT22;6381;45.748;12.106;2023-03-22T07:34:24;15.00;95.50
12632;DHT22;6381;45.748;12.106;2023-03-22T07:37:08;15.00;95.20
12632;DHT22;6381;45.748;12.106;2023-03-22T07:39:42;15.10;94.30
12632;DHT22;6381;45.748;12.106;2023-03-22T07:42:12;15.30;94.00
12632;DHT22;6381;45.748;12.106;2023-03-22T07:44:42;15.40;94.20
12632;DHT22;6381;45.748;12.106;2023-03-22T07:47:17;15.40;94.00
12632;DHT22;6381;45.748;12.106;2023-03-22T07:50:35;15.40;94.10
12632;DHT22;6381;45.748;12.106;2023-03-22T07:53:06;15.50;93.80
12632;DHT22;6381;45.748;12.106;2023-03-22T07:55:40;15.50;94.10
12632;DHT22;6381;45.748;12.106;2023-03-22T07:58:11;15.50;93.60
12632;DHT22;6381;45.748;12.106;2023-03-22T08:00:42;15.80;93.70
12632;DHT22;6381;45.748;12.106;2023-03-22T08:03:33;15.90;93.50
12632;DHT22;6381;45.748;12.106;2023-03-22T08:06:11;15.90;93.20
12632;DHT22;6381;45.748;12.106;2023-03-22T08:08:41;15.90;93.30
12632;DHT22;6381;45.748;12.106;2023-03-22T08:11:13;16.00;93.50
12632;DHT22;6381;45.748;12.106;2023-03-22T08:13:43;16.00;92.90
12632;DHT22;6381;45.748;12.106;2023-03-22T08:16:14;15.90;92.50
12632;DHT22;6381;45.748;12.106;2023-03-22T08:18:46;16.00;92.50
12632;DHT22;6381;45.748;12.106;2023-03-22T08:21:17;16.10;92.10
12632;DHT22;6381;45.748;12.106;2023-03-22T08:23:51;16.30;92.30
12632;DHT22;6381;45.748;12.106;2023-03-22T08:26:38;16.40;92.10
12632;DHT22;6381;45.748;12.106;2023-03-22T08:29:16;16.50;92.00
12632;DHT22;6381;45.748;12.106;2023-03-22T08:31:53;16.60;91.80
12632;DHT22;6381;45.748;12.106;2023-03-22T08:34:23;16.80;91.50
12632;DHT22;6381;45.748;12.106;2023-03-22T08:36:53;16.70;91.60
12632;DHT22;6381;45.748;12.106;2023-03-22T08:39:24;16.90;91.30
12632;DHT22;6381;45.748;12.106;2023-03-22T08:42:20;19.60;91.30
12632;DHT22;6381;45.748;12.106;2023-03-22T08:44:50;17.20;90.40
12632;DHT22;6381;45.748;12.106;2023-03-22T08:47:23;17.20;90.30
12632;DHT22;6381;45.748;12.106;2023-03-22T08:49:59;17.40;88.90
12632;DHT22;6381;45.748;12.106;2023-03-22T08:52:56;17.30;89.60
12632;DHT22;6381;45.748;12.106;2023-03-22T08:55:30;17.40;89.50
12632;DHT22;6381;45.748;12.106;2023-03-22T08:58:13;17.30;90.10
12632;DHT22;6381;45.748;12.106;2023-03-22T09:01:09;17.60;89.20
12632;DHT22;6381;45.748;12.106;2023-03-22T09:03:48;17.50;88.90
12632;DHT22;6381;45.748;12.106;2023-03-22T09:06:18;17.70;89.50
12632;DHT22;6381;45.748;12.106;2023-03-22T09:08:48;17.80;88.80
12632;DHT22;6381;45.748;12.106;2023-03-22T09:11:22;17.90;87.90
12632;DHT22;6381;45.748;12.106;2023-03-22T09:13:54;17.90;89.50
12632;DHT22;6381;45.748;12.106;2023-03-22T09:16:25;18.00;89.10
12632;DHT22;6381;45.748;12.106;2023-03-22T09:18:56;18.10;84.90
12632;DHT22;6381;45.748;12.106;2023-03-22T09:21:26;18.20;86.00
12632;DHT22;6381;45.748;12.106;2023-03-22T09:24:13;18.30;84.20
12632;DHT22;6381;45.748;12.106;2023-03-22T09:26:47;18.50;85.00
12632;DHT22;6381;45.748;12.106;2023-03-22T09:29:20;18.40;85.00
12632;DHT22;6381;45.748;12.106;2023-03-22T09:31:50;18.30;84.60
12632;DHT22;6381;45.748;12.106;2023-03-22T09:34:25;18.50;86.60
12632;DHT22;6381;45.748;12.106;2023-03-22T09:36:56;18.70;82.50
12632;DHT22;6381;45.748;12.106;2023-03-22T09:39:40;18.50;80.90
12632;DHT22;6381;45.748;12.106;2023-03-22T09:42:24;18.70;85.50
12632;DHT22;6381;45.748;12.106;2023-03-22T09:45:02;18.70;85.10
12632;DHT22;6381;45.748;12.106;2023-03-22T09:47:35;19.00;83.00
12632;DHT22;6381;45.748;12.106;2023-03-22T09:50:15;19.00;82.30
12632;DHT22;6381;45.748;12.106;2023-03-22T09:52:47;18.90;78.70
12632;DHT22;6381;45.748;12.106;2023-03-22T09:55:20;19.10;79.50
12632;DHT22;6381;45.748;12.106;2023-03-22T09:57:59;19.30;77.30
12632;DHT22;6381;45.748;12.106;2023-03-22T10:00:38;19.30;75.80
12632;DHT22;6381;45.748;12.106;2023-03-22T10:03:17;19.60;79.70
12632;DHT22;6381;45.748;12.106;2023-03-22T10:05:51;19.50;75.30
12632;DHT22;6381;45.748;12.106;2023-03-22T10:08:40;19.50;75.10
12632;DHT22;6381;45.748;12.106;2023-03-22T10:11:21;19.60;75.40
12632;DHT22;6381;45.748;12.106;2023-03-22T10:13:59;19.80;78.80
12632;DHT22;6381;45.748;12.106;2023-03-22T10:16:33;19.80;73.70
12632;DHT22;6381;45.748;12.106;2023-03-22T10:19:11;19.90;72.40
12632;DHT22;6381;45.748;12.106;2023-03-22T10:21:43;19.60;69.90
12632;DHT22;6381;45.748;12.106;2023-03-22T10:24:17;19.20;71.20
12632;DHT22;6381;45.748;12.106;2023-03-22T10:26:49;19.00;71.90
12632;DHT22;6381;45.748;12.106;2023-03-22T10:29:23;19.40;73.70
12632;DHT22;6381;45.748;12.106;2023-03-22T10:32:09;19.80;71.70
12632;DHT22;6381;45.748;12.106;2023-03-22T10:34:42;19.80;70.10
12632;DHT22;6381;45.748;12.106;2023-03-22T10:37:14;19.70;68.10
12632;DHT22;6381;45.748;12.106;2023-03-22T10:39:48;19.80;68.80
12632;DHT22;6381;45.748;12.106;2023-03-22T10:42:22;19.50;67.70
12632;DHT22;6381;45.748;12.106;2023-03-22T10:44:56;19.60;66.30
12632;DHT22;6381;45.748;12.106;2023-03-22T10:47:33;19.70;68.20
12632;DHT22;6381;45.748;12.106;2023-03-22T10:50:07;19.40;67.40
12632;DHT22;6381;45.748;12.106;2023-03-22T10:52:46;19.80;67.00
12632;DHT22;6381;45.748;12.106;2023-03-22T10:55:18;19.50;66.90
12632;DHT22;6381;45.748;12.106;2023-03-22T10:57:56;20.10;66.10
12632;DHT22;6381;45.748;12.106;2023-03-22T11:00:28;20.20;64.90
12632;DHT22;6381;45.748;12.106;2023-03-22T11:03:01;20.00;65.10
12632;DHT22;6381;45.748;12.106;2023-03-22T11:05:34;20.40;65.10
12632;DHT22;6381;45.748;12.106;2023-03-22T11:08:06;20.10;64.40
12632;DHT22;6381;45.748;12.106;2023-03-22T11:10:36;20.00;62.80
12632;DHT22;6381;45.748;12.106;2023-03-22T11:13:12;20.00;62.30
12632;DHT22;6381;45.748;12.106;2023-03-22T11:15:52;20.30;61.30
12632;DHT22;6381;45.748;12.106;2023-03-22T11:18:29;20.00;60.60
12632;DHT22;6381;45.748;12.106;2023-03-22T11:21:05;20.80;60.40
12632;DHT22;6381;45.748;12.106;2023-03-22T11:23:37;20.80;60.40
12632;DHT22;6381;45.748;12.106;2023-03-22T11:26:11;21.10;61.40
12632;DHT22;6381;45.748;12.106;2023-03-22T11:28:45;21.30;60.00
12632;DHT22;6381;45.748;12.106;2023-03-22T11:31:18;20.60;58.60
12632;DHT22;6381;45.748;12.106;2023-03-22T11:33:56;21.50;58.60
12632;DHT22;6381;45.748;12.106;2023-03-22T11:36:28;21.40;57.70
12632;DHT22;6381;45.748;12.106;2023-03-22T11:38:59;20.60;55.10
12632;DHT22;6381;45.748;12.106;2023-03-22T11:41:34;20.60;54.80
12632;DHT22;6381;45.748;12.106;2023-03-22T11:44:07;20.50;56.50
12632;DHT22;6381;45.748;12.106;2023-03-22T11:46:40;21.10;56.00
12632;DHT22;6381;45.748;12.106;2023-03-22T11:49:18;21.40;53.40
12632;DHT22;6381;45.748;12.106;2023-03-22T11:51:51;21.20;54.30
12632;DHT22;6381;45.748;12.106;2023-03-22T11:54:28;21.00;54.60
12632;DHT22;6381;45.748;12.106;2023-03-22T11:57:03;21.30;52.30
12632;DHT22;6381;45.748;12.106;2023-03-22T11:59:38;21.20;53.20
12632;DHT22;6381;45.748;12.106;2023-03-22T12:02:17;21.00;53.50
12632;DHT22;6381;45.748;12.106;2023-03-22T12:04:52;21.20;53.00
12632;DHT22;6381;45.748;12.106;2023-03-22T12:07:24;21.70;52.00
12632;DHT22;6381;45.748;12.106;2023-03-22T12:10:02;22.10;51.40
12632;DHT22;6381;45.748;12.106;2023-03-22T12:12:38;22.60;49.90
12632;DHT22;6381;45.748;12.106;2023-03-22T12:15:16;21.90;50.70
12632;DHT22;6381;45.748;12.106;2023-03-22T12:17:52;21.70;50.70
12632;DHT22;6381;45.748;12.106;2023-03-22T12:20:33;22.30;50.40
12632;DHT22;6381;45.748;12.106;2023-03-22T12:23:13;23.00;48.90
12632;DHT22;6381;45.748;12.106;2023-03-22T12:25:48;22.00;47.60
12632;DHT22;6381;45.748;12.106;2023-03-22T12:28:21;22.10;48.20
12632;DHT22;6381;45.748;12.106;2023-03-22T12:30:53;22.00;47.70
12632;DHT22;6381;45.748;12.106;2023-03-22T12:33:27;21.90;49.00
12632;DHT22;6381;45.748;12.106;2023-03-22T12:36:02;22.40;48.80
12632;DHT22;6381;45.748;12.106;2023-03-22T12:38:38;23.70;47.80
12632;DHT22;6381;45.748;12.106;2023-03-22T12:41:11;24.00;44.60
12632;DHT22;6381;45.748;12.106;2023-03-22T12:43:47;23.20;43.90
12632;DHT22;6381;45.748;12.106;2023-03-22T12:46:20;22.40;43.30
12632;DHT22;6381;45.748;12.106;2023-03-22T12:48:56;23.40;41.50
12632;DHT22;6381;45.748;12.106;2023-03-22T12:51:31;22.20;44.30
12632;DHT22;6381;45.748;12.106;2023-03-22T12:54:02;22.40;43.70
12632;DHT22;6381;45.748;12.106;2023-03-22T12:56:37;22.70;43.20
12632;DHT22;6381;45.748;12.106;2023-03-22T12:59:14;22.70;43.40
12632;DHT22;6381;45.748;12.106;2023-03-22T13:01:50;23.00;41.50
12632;DHT22;6381;45.748;12.106;2023-03-22T13:04:29;23.00;41.40
12632;DHT22;6381;45.748;12.106;2023-03-22T13:07:12;23.00;41.20
12632;DHT22;6381;45.748;12.106;2023-03-22T13:09:44;23.70;40.50
12632;DHT22;6381;45.748;12.106;2023-03-22T13:12:33;24.20;39.20
12632;DHT22;6381;45.748;12.106;2023-03-22T13:15:28;23.70;38.10
12632;DHT22;6381;45.748;12.106;2023-03-22T13:18:33;23.20;38.00
12632;DHT22;6381;45.748;12.106;2023-03-22T13:21:12;24.60;36.80
12632;DHT22;6381;45.748;12.106;2023-03-22T13:23:58;23.90;38.00
12632;DHT22;6381;45.748;12.106;2023-03-22T13:26:36;23.50;37.70
12632;DHT22;6381;45.748;12.106;2023-03-22T13:29:13;23.20;37.80
12632;DHT22;6381;45.748;12.106;2023-03-22T13:31:47;24.40;37.00
12632;DHT22;6381;45.748;12.106;2023-03-22T13:34:36;25.10;35.50
12632;DHT22;6381;45.748;12.106;2023-03-22T13:37:16;25.80;35.00
12632;DHT22;6381;45.748;12.106;2023-03-22T13:39:54;26.20;33.50
12632;DHT22;6381;45.748;12.106;2023-03-22T13:42:33;25.20;33.40
12632;DHT22;6381;45.748;12.106;2023-03-22T13:45:08;23.50;33.90
12632;DHT22;6381;45.748;12.106;2023-03-22T13:48:03;24.20;33.90
12632;DHT22;6381;45.748;12.106;2023-03-22T13:50:35;24.80;33.00
12632;DHT22;6381;45.748;12.106;2023-03-22T13:53:13;24.00;33.30
12632;DHT22;6381;45.748;12.106;2023-03-22T13:55:57;23.90;35.20
12632;DHT22;6381;45.748;12.106;2023-03-22T13:58:35;25.20;33.30
12632;DHT22;6381;45.748;12.106;2023-03-22T14:01:11;24.90;31.60
12632;DHT22;6381;45.748;12.106;2023-03-22T14:03:44;24.30;33.00
12632;DHT22;6381;45.748;12.106;2023-03-22T14:06:19;23.90;33.40
12632;DHT22;6381;45.748;12.106;2023-03-22T14:08:54;23.90;33.50
12632;DHT22;6381;45.748;12.106;2023-03-22T14:11:31;24.60;33.00
12632;DHT22;6381;45.748;12.106;2023-03-22T14:14:09;24.50;32.50
12632;DHT22;6381;45.748;12.106;2023-03-22T14:16:41;23.80;33.60
12632;DHT22;6381;45.748;12.106;2023-03-22T14:19:17;23.70;33.80
12632;DHT22;6381;45.748;12.106;2023-03-22T14:21:51;23.60;34.50
12632;DHT22;6381;45.748;12.106;2023-03-22T14:24:25;23.50;34.70
12632;DHT22;6381;45.748;12.106;2023-03-22T14:26:57;23.60;34.90
12632;DHT22;6381;45.748;12.106;2023-03-22T14:29:40;24.50;34.90
12632;DHT22;6381;45.748;12.106;2023-03-22T14:32:16;24.60;34.00
12632;DHT22;6381;45.748;12.106;2023-03-22T14:34:47;24.80;34.60
12632;DHT22;6381;45.748;12.106;2023-03-22T14:37:18;23.80;34.40
12632;DHT22;6381;45.748;12.106;2023-03-22T14:39:48;23.60;34.90
12632;DHT22;6381;45.748;12.106;2023-03-22T14:42:27;24.40;34.90
12632;DHT22;6381;45.748;12.106;2023-03-22T14:44:59;24.80;34.50
12632;DHT22;6381;45.748;12.106;2023-03-22T14:47:31;25.20;34.80
12632;DHT22;6381;45.748;12.106;2023-03-22T14:50:07;25.50;34.30
12632;DHT22;6381;45.748;12.106;2023-03-22T14:52:39;25.00;34.20
12632;DHT22;6381;45.748;12.106;2023-03-22T14:55:17;25.10;35.20
12632;DHT22;6381;45.748;12.106;2023-03-22T14:57:50;24.00;34.50
12632;DHT22;6381;45.748;12.106;2023-03-22T15:00:20;24.40;35.40
12632;DHT22;6381;45.748;12.106;2023-03-22T15:02:55;24.10;35.10
12632;DHT22;6381;45.748;12.106;2023-03-22T15:05:25;24.50;35.90
12632;DHT22;6381;45.748;12.106;2023-03-22T15:08:05;25.00;35.40
12632;DHT22;6381;45.748;12.106;2023-03-22T15:10:36;25.20;34.60
12632;DHT22;6381;45.748;12.106;2023-03-22T15:13:07;24.90;34.80
12632;DHT22;6381;45.748;12.106;2023-03-22T15:15:39;25.40;35.00
12632;DHT22;6381;45.748;12.106;2023-03-22T15:18:13;24.90;34.60
12632;DHT22;6381;45.748;12.106;2023-03-22T15:20:44;24.80;34.50
12632;DHT22;6381;45.748;12.106;2023-03-22T15:23:17;24.10;35.30
12632;DHT22;6381;45.748;12.106;2023-03-22T15:25:47;24.20;35.70
12632;DHT22;6381;45.748;12.106;2023-03-22T15:28:19;23.50;36.40
12632;DHT22;6381;45.748;12.106;2023-03-22T15:30:49;23.30;36.40
12632;DHT22;6381;45.748;12.106;2023-03-22T15:33:21;24.10;37.00
12632;DHT22;6381;45.748;12.106;2023-03-22T15:35:50;23.90;37.00
12632;DHT22;6381;45.748;12.106;2023-03-22T15:38:25;23.60;38.40
12632;DHT22;6381;45.748;12.106;2023-03-22T15:40:55;23.40;41.40
12632;DHT22;6381;45.748;12.106;2023-03-22T15:43:32;23.60;41.90
12632;DHT22;6381;45.748;12.106;2023-03-22T15:46:15;23.10;42.50
12632;DHT22;6381;45.748;12.106;2023-03-22T15:48:48;23.00;42.60
12632;DHT22;6381;45.748;12.106;2023-03-22T15:51:20;23.40;42.40
12632;DHT22;6381;45.748;12.106;2023-03-22T15:53:49;23.30;42.20
12632;DHT22;6381;45.748;12.106;2023-03-22T15:56:24;23.10;42.60
12632;DHT22;6381;45.748;12.106;2023-03-22T15:58:57;23.20;42.70
12632;DHT22;6381;45.748;12.106;2023-03-22T16:01:34;22.90;43.50
12632;DHT22;6381;45.748;12.106;2023-03-22T16:04:10;23.10;43.10
12632;DHT22;6381;45.748;12.106;2023-03-22T16:06:47;23.10;43.40
12632;DHT22;6381;45.748;12.106;2023-03-22T16:09:16;22.70;44.30
12632;DHT22;6381;45.748;12.106;2023-03-22T16:11:46;23.10;44.30
12632;DHT22;6381;45.748;12.106;2023-03-22T16:14:18;22.90;44.20
12632;DHT22;6381;45.748;12.106;2023-03-22T16:16:47;23.00;44.10
12632;DHT22;6381;45.748;12.106;2023-03-22T16:19:16;22.90;44.50
12632;DHT22;6381;45.748;12.106;2023-03-22T16:21:45;22.00;45.70
12632;DHT22;6381;45.748;12.106;2023-03-22T16:24:14;21.80;46.60
12632;DHT22;6381;45.748;12.106;2023-03-22T16:26:43;21.40;47.30
12632;DHT22;6381;45.748;12.106;2023-03-22T16:29:12;21.00;48.40
12632;DHT22;6381;45.748;12.106;2023-03-22T16:31:42;20.80;49.00
12632;DHT22;6381;45.748;12.106;2023-03-22T16:34:11;20.70;49.50
12632;DHT22;6381;45.748;12.106;2023-03-22T16:36:40;21.00;49.30